Weather at James M Cox Dayton International Airport

Public forecast

Using degrees Fahrenheit for public forecast. Weather courtesy of forecast.io.

Current aviation weather report (METAR) for James M Cox Dayton International Airport

2024/06/15 15:56 (retrieved 38 minutes ago)

KDAY 151556Z 09010G14KT 10SM FEW250 25/09 A3017 RMK AO2 SLP210 T02500094

Aviation forecast (TAF) for James M Cox Dayton International Airport

2024/06/15 12:40 (retrieved 4 hours ago)

TAF KDAY 151137Z 1512/1612 08009KT P6SM FEW250 FM160100 10005KT P6SM SCT250